createdAt,value
2022-08-15T00:02:01.403Z,85.50
2022-08-15T00:04:34.437Z,89.27
2022-08-15T00:07:03.396Z,91.89
2022-08-15T00:09:55.537Z,91.43
2022-08-15T00:12:34.535Z,94.38
2022-08-15T00:15:09.149Z,96.04
2022-08-15T00:17:48.003Z,96.75
2022-08-15T00:20:20.429Z,95.99
2022-08-15T00:22:52.208Z,98.81
2022-08-15T00:25:26.308Z,100.00
2022-08-15T00:27:56.548Z,100.00
2022-08-15T00:30:27.467Z,100.00
2022-08-15T00:33:21.239Z,100.00
2022-08-15T00:36:01.930Z,100.00
2022-08-15T00:38:43.496Z,100.00
2022-08-15T00:41:35.145Z,100.00
2022-08-15T00:44:14.610Z,100.00
2022-08-15T00:46:45.383Z,100.00
2022-08-15T00:49:17.685Z,100.00
2022-08-15T00:51:54.747Z,100.00
2022-08-15T00:54:37.338Z,100.00
2022-08-15T00:57:57.025Z,100.00
2022-08-15T01:00:33.337Z,100.00
2022-08-15T01:03:05.806Z,100.00
2022-08-15T01:05:47.216Z,100.00
2022-08-15T01:08:19.120Z,100.00
2022-08-15T01:10:54.820Z,100.00
2022-08-15T01:14:05.853Z,100.00
2022-08-15T01:16:34.030Z,100.00
2022-08-15T01:19:12.555Z,100.00
2022-08-15T01:22:02.556Z,100.00
2022-08-15T01:25:16.730Z,100.00
2022-08-15T01:27:46.638Z,100.00
2022-08-15T01:31:00.820Z,100.00
2022-08-15T01:33:11.898Z,100.00
2022-08-15T01:35:43.710Z,100.00
2022-08-15T01:38:37.089Z,100.00
2022-08-15T01:41:14.883Z,100.00
2022-08-15T01:43:54.587Z,100.00
2022-08-15T01:46:28.598Z,100.00
2022-08-15T01:49:07.538Z,100.00
2022-08-15T01:51:37.168Z,100.00
2022-08-15T01:54:09.113Z,100.00
2022-08-15T01:56:45.655Z,100.00
2022-08-15T01:59:18.268Z,100.00
2022-08-15T02:01:54.462Z,100.00
2022-08-15T02:04:29.462Z,100.00
2022-08-15T02:07:00.335Z,100.00
2022-08-15T02:09:38.240Z,100.00
2022-08-15T02:13:04.103Z,100.00
2022-08-15T02:15:18.127Z,100.00
2022-08-15T02:17:46.930Z,100.00
2022-08-15T02:20:23.401Z,100.00
2022-08-15T02:22:53.659Z,100.00
2022-08-15T02:25:23.800Z,100.00
2022-08-15T02:27:56.970Z,100.00
2022-08-15T02:30:32.848Z,100.00
2022-08-15T02:33:02.887Z,100.00
2022-08-15T02:35:31.426Z,100.00
2022-08-15T02:38:11.609Z,100.00
2022-08-15T02:40:52.092Z,100.00
2022-08-15T02:43:24.508Z,100.00
2022-08-15T02:45:56.678Z,100.00
2022-08-15T02:48:57.447Z,100.00
2022-08-15T02:51:53.481Z,100.00
2022-08-15T02:54:37.367Z,100.00
2022-08-15T02:57:16.351Z,100.00
2022-08-15T02:59:48.667Z,100.00
2022-08-15T03:02:30.613Z,100.00
2022-08-15T03:05:02.210Z,100.00
2022-08-15T03:07:33.879Z,100.00
2022-08-15T03:10:05.312Z,100.00
2022-08-15T03:12:54.762Z,100.00
2022-08-15T03:15:30.167Z,100.00
2022-08-15T03:18:03.285Z,100.00
2022-08-15T03:20:32.874Z,100.00
2022-08-15T03:23:04.688Z,100.00
2022-08-15T03:25:52.687Z,100.00
2022-08-15T03:28:30.006Z,100.00
2022-08-15T03:31:05.907Z,100.00
2022-08-15T03:33:56.615Z,100.00
2022-08-15T03:36:26.679Z,100.00
2022-08-15T03:38:58.066Z,100.00
2022-08-15T03:41:29.526Z,100.00
2022-08-15T03:43:58.268Z,100.00
2022-08-15T03:46:28.667Z,100.00
2022-08-15T03:48:59.401Z,100.00
2022-08-15T03:51:34.158Z,100.00
2022-08-15T03:54:24.809Z,100.00
2022-08-15T03:56:57.028Z,100.00
2022-08-15T03:59:25.228Z,100.00
2022-08-15T04:02:00.974Z,100.00
2022-08-15T04:04:31.128Z,100.00
2022-08-15T04:07:01.542Z,100.00
2022-08-15T04:09:43.677Z,100.00
2022-08-15T04:12:25.862Z,100.00
2022-08-15T04:14:56.158Z,100.00
2022-08-15T04:17:57.220Z,100.00
2022-08-15T04:20:26.674Z,100.00
2022-08-15T04:23:02.520Z,100.00
2022-08-15T04:25:38.418Z,100.00
2022-08-15T04:28:39.266Z,100.00
2022-08-15T04:31:15.348Z,100.00
2022-08-15T04:34:44.155Z,100.00
2022-08-15T04:36:39.937Z,100.00
2022-08-15T04:39:12.572Z,100.00
2022-08-15T04:41:52.936Z,100.00
2022-08-15T04:44:28.363Z,100.00
2022-08-15T04:46:58.654Z,100.00
2022-08-15T04:49:32.237Z,100.00
2022-08-15T04:52:09.449Z,100.00
2022-08-15T04:54:38.137Z,100.00
2022-08-15T04:57:30.641Z,100.00
2022-08-15T05:00:04.498Z,100.00
2022-08-15T05:03:01.625Z,100.00
2022-08-15T05:05:37.544Z,100.00
2022-08-15T05:08:14.457Z,100.00
2022-08-15T05:10:53.067Z,100.00
2022-08-15T05:13:24.607Z,100.00
2022-08-15T05:15:55.449Z,100.00
2022-08-15T05:18:29.018Z,100.00
2022-08-15T05:21:00.679Z,100.00
2022-08-15T05:23:42.933Z,100.00
2022-08-15T05:26:53.121Z,100.00
2022-08-15T05:29:08.960Z,100.00
2022-08-15T05:31:37.518Z,100.00
2022-08-15T05:34:12.539Z,100.00
2022-08-15T05:36:56.609Z,100.00
2022-08-15T05:39:34.578Z,100.00
2022-08-15T05:42:31.061Z,100.00
2022-08-15T05:45:10.440Z,100.00
2022-08-15T05:47:54.778Z,100.00
2022-08-15T05:50:32.446Z,100.00
2022-08-15T05:53:18.058Z,100.00
2022-08-15T05:55:55.547Z,100.00
2022-08-15T05:58:43.253Z,100.00
2022-08-15T06:01:27.546Z,100.00
2022-08-15T06:04:01.346Z,100.00
2022-08-15T06:06:46.246Z,100.00
2022-08-15T06:09:35.002Z,100.00
2022-08-15T06:12:25.079Z,100.00
2022-08-15T06:15:04.496Z,100.00
2022-08-15T06:17:39.590Z,100.00
2022-08-15T06:20:29.427Z,100.00
2022-08-15T06:23:13.415Z,100.00
2022-08-15T06:25:55.499Z,100.00
2022-08-15T06:28:52.878Z,100.00
2022-08-15T06:31:38.970Z,100.00
2022-08-15T06:34:46.770Z,100.00
2022-08-15T06:37:24.185Z,100.00
2022-08-15T06:40:08.477Z,100.00
2022-08-15T06:42:43.566Z,100.00
2022-08-15T06:45:31.911Z,100.00
2022-08-15T06:48:55.378Z,100.00
2022-08-15T06:51:01.606Z,100.00
2022-08-15T06:53:39.766Z,100.00
2022-08-15T06:56:19.169Z,100.00
2022-08-15T06:58:57.351Z,100.00
2022-08-15T07:02:17.296Z,100.00
2022-08-15T07:04:41.408Z,100.00
2022-08-15T07:07:18.556Z,100.00
2022-08-15T07:09:57.809Z,100.00
2022-08-15T07:12:37.476Z,100.00
2022-08-15T07:15:17.875Z,100.00
2022-08-15T07:17:54.993Z,100.00
2022-08-15T07:20:40.476Z,98.58
2022-08-15T07:23:24.595Z,95.91
2022-08-15T07:25:56.297Z,91.17
2022-08-15T07:28:30.766Z,91.71
2022-08-15T07:31:09.669Z,92.09
2022-08-15T07:33:55.661Z,86.57
2022-08-15T07:36:30.520Z,87.03
2022-08-15T07:39:33.211Z,90.82
2022-08-15T07:42:28.256Z,94.08
2022-08-15T07:45:10.035Z,96.95
2022-08-15T07:47:42.512Z,97.62
2022-08-15T07:50:33.268Z,97.76
2022-08-15T07:53:15.598Z,98.09
2022-08-15T07:56:37.825Z,96.24
2022-08-15T07:59:08.318Z,96.72
2022-08-15T08:01:39.919Z,96.92
2022-08-15T08:04:23.126Z,94.68
2022-08-15T08:07:03.833Z,94.85
2022-08-15T08:09:41.352Z,93.23
2022-08-15T08:12:30.817Z,93.24
2022-08-15T08:15:42.421Z,92.62
2022-08-15T08:18:25.905Z,92.28
2022-08-15T08:21:03.287Z,91.83
2022-08-15T08:23:39.693Z,91.72
2022-08-15T08:26:21.486Z,89.25
2022-08-15T08:28:59.309Z,87.32
2022-08-15T08:31:38.008Z,87.25
2022-08-15T08:34:38.667Z,83.07
2022-08-15T08:37:16.108Z,85.45
2022-08-15T08:39:53.019Z,84.30
2022-08-15T08:42:34.208Z,81.96
2022-08-15T08:45:17.308Z,81.27
2022-08-15T08:47:59.865Z,80.84
2022-08-15T08:50:36.624Z,79.25
2022-08-15T08:53:18.749Z,79.58
2022-08-15T08:56:04.588Z,80.35
2022-08-15T08:58:44.024Z,77.15
2022-08-15T09:01:18.291Z,76.11
2022-08-15T09:03:53.578Z,77.25
2022-08-15T09:06:27.249Z,75.47
2022-08-15T09:09:04.588Z,75.83
2022-08-15T09:11:45.025Z,74.76
2022-08-15T09:14:32.985Z,73.21
2022-08-15T09:20:05.823Z,71.38
2022-08-15T09:22:39.978Z,72.44
2022-08-15T09:25:11.679Z,73.35
2022-08-15T09:27:56.150Z,71.20
2022-08-15T09:30:48.672Z,71.67
2022-08-15T09:33:30.320Z,71.20
2022-08-15T09:36:27.729Z,73.03
2022-08-15T09:39:10.487Z,73.60
2022-08-15T09:41:57.101Z,73.03
2022-08-15T09:44:45.938Z,74.32
2022-08-15T09:47:49.865Z,73.60
2022-08-15T09:50:46.395Z,75.52
2022-08-15T09:53:52.109Z,76.29
2022-08-15T09:56:22.910Z,77.46
2022-08-15T09:59:07.978Z,80.02
2022-08-15T10:01:56.223Z,78.43
2022-08-15T10:05:02.189Z,79.96
2022-08-15T10:07:46.800Z,78.81
2022-08-15T10:10:23.145Z,80.10
2022-08-15T10:13:15.546Z,79.25
2022-08-15T10:15:51.622Z,76.85
2022-08-15T10:18:53.897Z,77.78
2022-08-15T10:21:32.757Z,77.57
2022-08-15T10:24:04.568Z,76.70
2022-08-15T10:27:16.767Z,75.74
2022-08-15T10:29:53.051Z,75.02
2022-08-15T10:32:55.479Z,74.89
2022-08-15T10:35:36.215Z,74.29
2022-08-15T10:38:08.699Z,75.27
2022-08-15T10:41:15.099Z,75.75
2022-08-15T10:44:00.535Z,75.52
2022-08-15T10:46:44.875Z,73.64
2022-08-15T10:49:26.419Z,74.42
2022-08-15T10:52:18.888Z,74.77
2022-08-15T10:55:13.607Z,77.09
2022-08-15T10:57:50.318Z,76.69
2022-08-15T11:00:51.468Z,76.14
2022-08-15T11:04:48.743Z,77.27
2022-08-15T11:06:17.785Z,73.02
2022-08-15T11:08:49.855Z,72.18
2022-08-15T11:11:21.667Z,68.96
2022-08-15T11:13:56.275Z,65.88
2022-08-15T11:16:37.185Z,66.91
2022-08-15T11:20:02.182Z,69.21
2022-08-15T11:22:22.235Z,70.13
2022-08-15T11:25:00.330Z,71.84
2022-08-15T11:27:33.532Z,72.02
2022-08-15T11:30:21.767Z,72.53
2022-08-15T11:32:55.129Z,71.74
2022-08-15T11:35:27.070Z,72.51
2022-08-15T11:37:58.722Z,72.46
2022-08-15T11:40:30.152Z,70.90
2022-08-15T11:43:11.006Z,71.13
2022-08-15T11:45:51.261Z,70.90
2022-08-15T11:51:07.617Z,70.82
2022-08-15T11:53:42.604Z,70.94
2022-08-15T11:56:21.959Z,69.42
2022-08-15T11:59:03.870Z,69.17
2022-08-15T12:01:34.399Z,69.71
2022-08-15T12:04:41.329Z,70.22
2022-08-15T12:06:57.092Z,69.35
2022-08-15T12:09:43.361Z,71.88
2022-08-15T12:12:32.854Z,70.45
2022-08-15T12:15:10.737Z,71.27
2022-08-15T12:17:54.916Z,71.47
2022-08-15T12:20:50.383Z,69.84
2022-08-15T12:23:27.275Z,71.35
2022-08-15T12:25:57.717Z,69.51
2022-08-15T12:28:37.666Z,69.95
2022-08-15T12:31:22.621Z,67.63
2022-08-15T12:34:29.309Z,69.99
2022-08-15T12:37:03.763Z,68.63
2022-08-15T12:39:35.721Z,68.62
2022-08-15T12:42:53.993Z,67.84
2022-08-15T12:44:55.547Z,65.06
2022-08-15T12:47:32.029Z,65.69
2022-08-15T12:50:03.457Z,65.54
2022-08-15T12:52:36.513Z,67.06
2022-08-15T12:55:10.309Z,66.62
2022-08-15T12:58:02.223Z,65.51
2022-08-15T13:00:36.062Z,65.28
2022-08-15T13:03:16.851Z,63.83
2022-08-15T13:06:31.231Z,62.34
2022-08-15T13:08:42.980Z,59.93
2022-08-15T13:11:16.909Z,59.24
2022-08-15T13:13:48.956Z,58.84
2022-08-15T13:16:55.839Z,59.59
2022-08-15T13:19:10.114Z,56.29
2022-08-15T13:22:06.188Z,56.53
2022-08-15T13:24:36.162Z,56.90
2022-08-15T13:27:08.442Z,56.86
2022-08-15T13:29:55.758Z,59.20
2022-08-15T13:32:25.279Z,58.66
2022-08-15T13:34:53.928Z,58.46
2022-08-15T13:37:59.042Z,57.83
2022-08-15T13:40:20.130Z,58.22
2022-08-15T13:42:49.340Z,59.60
2022-08-15T13:45:58.105Z,58.79
2022-08-15T13:48:16.125Z,58.47
2022-08-15T13:50:45.214Z,57.31
2022-08-15T13:53:15.047Z,58.27
2022-08-15T13:55:44.578Z,56.77
2022-08-15T13:58:20.422Z,56.19
2022-08-15T14:00:56.537Z,57.62
2022-08-15T14:04:11.062Z,57.80
2022-08-15T14:06:55.155Z,56.33
2022-08-15T14:10:04.510Z,54.54
2022-08-15T14:12:14.346Z,54.59
2022-08-15T14:14:46.815Z,53.23
2022-08-15T14:17:36.959Z,52.01
2022-08-15T14:20:27.026Z,50.85
2022-08-15T14:22:58.508Z,51.14
2022-08-15T14:27:09.257Z,51.17
2022-08-15T14:28:19.066Z,51.38
2022-08-15T14:30:55.395Z,50.99
2022-08-15T14:39:12.733Z,48.89
2022-08-15T14:41:43.248Z,47.33
2022-08-15T14:44:47.158Z,48.44
2022-08-15T14:47:03.188Z,46.19
2022-08-15T14:50:53.500Z,45.10
2022-08-15T14:52:25.141Z,47.04
2022-08-15T14:54:56.059Z,47.88
2022-08-15T14:57:26.323Z,49.42
2022-08-15T14:59:58.327Z,48.84
2022-08-15T15:02:36.551Z,49.81
2022-08-15T15:05:08.777Z,48.87
2022-08-15T15:07:55.785Z,47.79
2022-08-15T15:10:31.190Z,47.25
2022-08-15T15:13:02.735Z,45.63
2022-08-15T15:15:42.274Z,46.59
2022-08-15T15:18:39.295Z,47.72
2022-08-15T15:21:02.449Z,47.67
2022-08-15T15:23:32.675Z,46.91
2022-08-15T15:26:03.551Z,47.69
2022-08-15T15:28:35.921Z,47.19
2022-08-15T15:31:10.999Z,47.94
2022-08-15T15:33:43.245Z,48.73
2022-08-15T15:36:29.027Z,49.21
2022-08-15T15:39:03.623Z,47.89
2022-08-15T15:41:46.959Z,47.87
2022-08-15T15:44:20.754Z,49.21
2022-08-15T15:46:51.179Z,49.04
2022-08-15T15:49:28.906Z,45.90
2022-08-15T15:51:59.024Z,47.42
2022-08-15T15:54:35.759Z,46.81
2022-08-15T15:57:20.382Z,45.05
2022-08-15T15:59:58.048Z,45.41
2022-08-15T16:02:44.283Z,45.67
2022-08-15T16:05:19.009Z,45.56
2022-08-15T16:07:56.071Z,43.87
2022-08-15T16:10:33.597Z,43.76
2022-08-15T16:13:13.550Z,42.95
2022-08-15T16:15:48.910Z,42.35
2022-08-15T16:18:25.184Z,41.77
2022-08-15T16:21:00.402Z,42.03
2022-08-15T16:23:46.832Z,43.19
2022-08-15T16:26:25.938Z,42.91
2022-08-15T16:29:03.430Z,41.63
2022-08-15T16:31:45.304Z,41.80
2022-08-15T16:34:27.995Z,41.86
2022-08-15T16:37:02.711Z,42.32
2022-08-15T16:39:46.108Z,42.67
2022-08-15T16:42:40.551Z,42.81
2022-08-15T16:45:15.434Z,42.16
2022-08-15T16:47:56.487Z,43.19
2022-08-15T16:50:31.848Z,43.25
2022-08-15T16:53:18.866Z,44.66
2022-08-15T16:55:54.607Z,45.96
2022-08-15T16:58:38.403Z,44.86
2022-08-15T17:01:29.331Z,46.21
2022-08-15T17:04:13.697Z,44.51
2022-08-15T17:06:50.089Z,45.58
2022-08-15T17:09:53.752Z,46.12
2022-08-15T17:12:24.270Z,46.17
2022-08-15T17:15:03.909Z,46.08
2022-08-15T17:17:52.318Z,46.62
2022-08-15T17:20:31.113Z,45.79
2022-08-15T17:23:12.568Z,45.10
2022-08-15T17:25:45.190Z,45.38
2022-08-15T17:28:39.248Z,45.64
2022-08-15T17:31:11.688Z,45.68
2022-08-15T17:33:45.366Z,47.02
2022-08-15T17:36:17.618Z,47.03
2022-08-15T17:38:53.285Z,48.98
2022-08-15T17:41:28.955Z,49.10
2022-08-15T17:44:13.402Z,49.91
2022-08-15T17:46:53.568Z,49.83
2022-08-15T17:49:32.030Z,50.86
2022-08-15T17:52:07.008Z,51.29
2022-08-15T17:54:51.945Z,51.91
2022-08-15T17:57:25.645Z,52.77
2022-08-15T18:00:22.451Z,52.81
2022-08-15T18:03:04.956Z,53.99
2022-08-15T18:05:35.352Z,53.62
2022-08-15T18:08:10.557Z,55.57
2022-08-15T18:10:52.804Z,54.68
2022-08-15T18:13:29.458Z,54.00
2022-08-15T18:16:20.648Z,54.29
2022-08-15T18:19:06.338Z,54.76
2022-08-15T18:21:55.277Z,56.22
2022-08-15T18:24:51.972Z,57.72
2022-08-15T18:27:33.902Z,56.84
2022-08-15T18:30:15.967Z,56.15
2022-08-15T18:32:51.910Z,57.85
2022-08-15T18:35:37.547Z,57.72
2022-08-15T18:38:20.548Z,58.57
2022-08-15T18:41:19.078Z,58.40
2022-08-15T18:43:53.529Z,60.02
2022-08-15T18:46:26.605Z,64.79
2022-08-15T18:49:00.537Z,65.31
2022-08-15T18:51:33.972Z,68.01
2022-08-15T18:54:47.078Z,72.76
2022-08-15T18:57:03.235Z,72.08
2022-08-15T18:59:34.868Z,71.63
2022-08-15T19:02:20.702Z,73.66
2022-08-15T19:05:13.009Z,73.48
2022-08-15T19:07:51.770Z,72.62
2022-08-15T19:10:26.889Z,73.14
2022-08-15T19:13:00.486Z,69.53
2022-08-15T19:15:38.946Z,68.92
2022-08-15T19:18:18.327Z,72.64
2022-08-15T19:21:03.457Z,70.19
2022-08-15T19:23:34.480Z,75.50
2022-08-15T19:26:26.146Z,76.46
2022-08-15T19:29:10.578Z,77.51
2022-08-15T19:31:53.377Z,76.36
2022-08-15T19:34:33.107Z,78.06
2022-08-15T19:37:12.295Z,79.41
2022-08-15T19:39:58.975Z,81.19
2022-08-15T19:42:44.887Z,83.18
2022-08-15T19:45:24.641Z,84.85
2022-08-15T19:48:00.657Z,88.07
2022-08-15T19:50:56.928Z,89.58
2022-08-15T19:53:41.834Z,89.39
2022-08-15T19:56:28.956Z,91.17
2022-08-15T19:59:08.325Z,89.79
2022-08-15T20:01:48.934Z,88.68
2022-08-15T20:04:49.069Z,87.17
2022-08-15T20:07:26.609Z,88.13
2022-08-15T20:10:17.933Z,90.56
2022-08-15T20:13:01.563Z,92.13
2022-08-15T20:15:41.796Z,95.13
2022-08-15T20:18:28.938Z,95.55
2022-08-15T20:21:09.587Z,96.45
2022-08-15T20:23:55.694Z,95.58
2022-08-15T20:26:41.167Z,95.10
2022-08-15T20:29:27.955Z,93.88
2022-08-15T20:32:23.154Z,94.31
2022-08-15T20:35:17.698Z,97.68
2022-08-15T20:37:55.781Z,99.70
2022-08-15T20:40:33.397Z,100.00
2022-08-15T20:43:11.486Z,99.63
2022-08-15T20:45:46.817Z,99.49
2022-08-15T20:48:42.781Z,98.49
2022-08-15T20:51:20.276Z,98.50
2022-08-15T20:53:55.231Z,99.55
2022-08-15T20:56:34.163Z,100.00
2022-08-15T20:59:12.392Z,100.00
2022-08-15T21:01:45.815Z,100.00
2022-08-15T21:04:33.938Z,100.00
2022-08-15T21:07:09.803Z,98.64
2022-08-15T21:09:56.684Z,96.92
2022-08-15T21:12:39.088Z,96.56
2022-08-15T21:16:04.039Z,96.94
2022-08-15T21:18:26.658Z,97.05
2022-08-15T21:21:16.074Z,98.34
2022-08-15T21:23:57.958Z,98.66
2022-08-15T21:26:40.394Z,99.83
2022-08-15T21:29:11.107Z,100.00
2022-08-15T21:31:40.447Z,100.00
2022-08-15T21:34:32.892Z,100.00
2022-08-15T21:37:36.221Z,100.00
2022-08-15T21:40:48.188Z,100.00
2022-08-15T21:43:53.659Z,100.00
2022-08-15T21:46:59.007Z,100.00
2022-08-15T21:50:04.447Z,100.00
2022-08-15T21:53:00.593Z,100.00
2022-08-15T21:55:45.754Z,100.00
2022-08-15T21:58:37.108Z,100.00
2022-08-15T22:01:22.425Z,100.00
2022-08-15T22:03:59.177Z,100.00
2022-08-15T22:06:31.338Z,100.00
2022-08-15T22:09:02.066Z,100.00
2022-08-15T22:11:35.887Z,100.00
2022-08-15T22:14:07.476Z,100.00
2022-08-15T22:16:39.492Z,100.00
2022-08-15T22:19:14.302Z,100.00
2022-08-15T22:21:45.217Z,100.00
2022-08-15T22:24:16.940Z,100.00
2022-08-15T22:26:51.932Z,100.00
2022-08-15T22:29:31.489Z,100.00
2022-08-15T22:32:11.820Z,100.00
2022-08-15T22:34:54.498Z,100.00
2022-08-15T22:37:34.116Z,100.00
2022-08-15T22:40:09.811Z,100.00
2022-08-15T22:42:43.213Z,100.00
2022-08-15T22:45:19.862Z,100.00
2022-08-15T22:47:51.889Z,100.00
2022-08-15T22:50:24.775Z,100.00
2022-08-15T22:52:57.967Z,100.00
2022-08-15T22:55:35.748Z,100.00
2022-08-15T22:58:13.258Z,100.00
2022-08-15T23:00:45.587Z,100.00
2022-08-15T23:03:14.788Z,100.00
2022-08-15T23:05:48.547Z,100.00
2022-08-15T23:08:22.738Z,100.00
2022-08-15T23:10:55.816Z,100.00
2022-08-15T23:13:58.647Z,100.00
2022-08-15T23:16:35.518Z,100.00
2022-08-15T23:19:17.089Z,100.00
2022-08-15T23:21:45.435Z,100.00
2022-08-15T23:24:21.398Z,100.00
2022-08-15T23:27:06.498Z,100.00
2022-08-15T23:29:40.908Z,100.00
2022-08-15T23:32:19.382Z,100.00
2022-08-15T23:35:03.695Z,100.00
2022-08-15T23:37:35.087Z,100.00
2022-08-15T23:40:12.684Z,100.00
2022-08-15T23:42:53.487Z,100.00
2022-08-15T23:45:25.617Z,100.00
2022-08-15T23:48:06.479Z,100.00
2022-08-15T23:50:42.561Z,100.00
2022-08-15T23:53:22.806Z,100.00
2022-08-15T23:56:31.921Z,100.00
2022-08-15T23:58:53.384Z,100.00
